createdAt,value
2023-05-02T00:00:16.599Z,21.83
2023-05-02T00:01:16.697Z,21.83
2023-05-02T00:02:16.822Z,21.82
2023-05-02T00:03:16.834Z,21.82
2023-05-02T00:04:17.075Z,21.83
2023-05-02T00:05:16.922Z,21.82
2023-05-02T00:06:17.145Z,21.82
2023-05-02T00:07:17.014Z,21.82
2023-05-02T00:08:17.098Z,21.81
2023-05-02T00:09:17.153Z,21.82
2023-05-02T00:10:17.176Z,21.82
2023-05-02T00:11:17.334Z,21.81
2023-05-02T00:12:17.311Z,21.82
2023-05-02T00:13:17.384Z,21.82
2023-05-02T00:14:17.442Z,21.81
2023-05-02T00:15:17.497Z,21.81
2023-05-02T00:16:17.604Z,21.81
2023-05-02T00:17:17.671Z,21.81
2023-05-02T00:18:17.750Z,21.82
2023-05-02T00:19:17.737Z,21.81
2023-05-02T00:20:17.811Z,21.80
2023-05-02T00:21:17.875Z,21.81
2023-05-02T00:22:17.915Z,21.81
2023-05-02T00:23:17.981Z,21.81
2023-05-02T00:24:18.091Z,21.81
2023-05-02T00:25:18.099Z,21.82
2023-05-02T00:26:18.150Z,21.80
2023-05-02T00:27:18.196Z,21.80
2023-05-02T00:28:18.292Z,21.81
2023-05-02T00:29:18.342Z,21.81
2023-05-02T00:30:18.427Z,21.80
2023-05-02T00:31:18.480Z,21.80
2023-05-02T00:32:18.484Z,21.80
2023-05-02T00:33:18.551Z,21.80
2023-05-02T00:34:18.626Z,21.80
2023-05-02T00:35:18.692Z,21.80
2023-05-02T00:36:18.766Z,21.80
2023-05-02T00:37:18.824Z,21.79
2023-05-02T00:38:18.860Z,21.80
2023-05-02T00:39:18.940Z,21.79
2023-05-02T00:40:19.017Z,21.79
2023-05-02T00:41:19.052Z,21.80
2023-05-02T00:42:19.125Z,21.79
2023-05-02T00:43:19.171Z,21.79
2023-05-02T00:44:19.235Z,21.79
2023-05-02T00:45:19.283Z,21.79
2023-05-02T00:46:19.355Z,21.78
2023-05-02T00:47:19.409Z,21.79
2023-05-02T00:48:19.453Z,21.79
2023-05-02T00:49:19.524Z,21.78
2023-05-02T00:50:19.592Z,21.79
2023-05-02T00:51:19.662Z,21.79
2023-05-02T00:52:19.738Z,21.78
2023-05-02T00:53:19.798Z,21.78
2023-05-02T00:54:19.822Z,21.79
2023-05-02T00:55:19.889Z,21.78
2023-05-02T00:56:19.958Z,21.78
2023-05-02T00:57:20.031Z,21.78
2023-05-02T00:58:20.106Z,21.78
2023-05-02T00:59:20.124Z,21.78
2023-05-02T01:00:20.188Z,21.78
2023-05-02T01:01:20.295Z,21.78
2023-05-02T01:02:20.324Z,21.78
2023-05-02T01:03:20.463Z,21.77
2023-05-02T01:04:20.586Z,21.77
2023-05-02T01:05:20.541Z,21.78
2023-05-02T01:06:20.595Z,21.77
2023-05-02T01:07:20.634Z,21.77
2023-05-02T01:08:20.689Z,21.77
2023-05-02T01:09:20.779Z,21.77
2023-05-02T01:10:20.843Z,21.77
2023-05-02T01:11:20.901Z,21.77
2023-05-02T01:12:20.950Z,21.76
2023-05-02T01:13:20.991Z,21.76
2023-05-02T01:14:21.074Z,21.76
2023-05-02T01:15:21.129Z,21.77
2023-05-02T01:16:21.259Z,21.76
2023-05-02T01:17:21.255Z,21.76
2023-05-02T01:18:21.333Z,21.76
2023-05-02T01:19:21.408Z,21.76
2023-05-02T01:20:21.465Z,21.76
2023-05-02T01:21:21.510Z,21.75
2023-05-02T01:22:21.572Z,21.76
2023-05-02T01:23:21.665Z,21.76
2023-05-02T01:24:21.706Z,21.76
2023-05-02T01:25:21.784Z,21.75
2023-05-02T01:26:21.851Z,21.75
2023-05-02T01:27:21.888Z,21.76
2023-05-02T01:28:21.932Z,21.75
2023-05-02T01:29:22.010Z,21.75
2023-05-02T01:30:22.073Z,21.76
2023-05-02T01:31:22.171Z,21.75
2023-05-02T01:32:22.193Z,21.76
2023-05-02T01:33:22.272Z,21.76
2023-05-02T01:34:22.316Z,21.75
2023-05-02T01:35:22.427Z,21.75
2023-05-02T01:36:22.443Z,21.75
2023-05-02T01:37:22.510Z,21.75
2023-05-02T01:38:22.558Z,21.74
2023-05-02T01:39:22.647Z,21.75
2023-05-02T01:40:22.735Z,21.74
2023-05-02T01:41:22.748Z,21.74
2023-05-02T01:42:22.813Z,21.74
2023-05-02T01:43:22.884Z,21.74
2023-05-02T01:44:22.960Z,21.74
2023-05-02T01:45:23.006Z,21.74
2023-05-02T01:46:23.118Z,21.74
2023-05-02T01:47:23.159Z,21.74
2023-05-02T01:48:23.172Z,21.74
2023-05-02T01:49:23.243Z,21.74
2023-05-02T01:50:23.305Z,21.74
2023-05-02T01:51:23.341Z,21.74
2023-05-02T01:52:23.409Z,21.73
2023-05-02T01:53:23.421Z,21.74
2023-05-02T01:54:23.460Z,21.74
2023-05-02T01:55:23.472Z,21.74
2023-05-02T01:56:23.505Z,21.74
2023-05-02T01:57:23.521Z,21.73
2023-05-02T01:58:23.564Z,21.73
2023-05-02T01:59:23.651Z,21.73
2023-05-02T02:00:23.687Z,21.73
2023-05-02T02:01:23.814Z,21.74
2023-05-02T02:02:23.826Z,21.73
2023-05-02T02:03:23.927Z,21.73
2023-05-02T02:04:24.027Z,21.73
2023-05-02T02:05:24.017Z,21.73
2023-05-02T02:06:24.112Z,21.72
2023-05-02T02:07:24.123Z,21.72
2023-05-02T02:08:24.187Z,21.72
2023-05-02T02:09:24.253Z,21.72
2023-05-02T02:10:24.302Z,21.72
2023-05-02T02:11:24.357Z,21.73
2023-05-02T02:12:24.398Z,21.72
2023-05-02T02:13:24.474Z,21.72
2023-05-02T02:14:24.538Z,21.72
2023-05-02T02:15:24.584Z,21.72
2023-05-02T02:16:24.657Z,21.73
2023-05-02T02:17:24.704Z,21.71
2023-05-02T02:18:24.743Z,21.72
2023-05-02T02:19:24.843Z,21.72
2023-05-02T02:20:24.884Z,21.71
2023-05-02T02:21:24.958Z,21.72
2023-05-02T02:22:24.985Z,21.72
2023-05-02T02:23:25.052Z,21.72
2023-05-02T02:24:25.106Z,21.71
2023-05-02T02:25:25.151Z,21.72
2023-05-02T02:26:25.210Z,21.71
2023-05-02T02:27:25.275Z,21.71
2023-05-02T02:28:25.310Z,21.71
2023-05-02T02:29:25.404Z,21.71
2023-05-02T02:30:25.451Z,21.70
2023-05-02T02:31:25.625Z,21.71
2023-05-02T02:32:25.636Z,21.70
2023-05-02T02:33:25.631Z,21.71
2023-05-02T02:34:25.681Z,21.70
2023-05-02T02:35:25.737Z,21.71
2023-05-02T02:36:25.803Z,21.71
2023-05-02T02:37:25.857Z,21.70
2023-05-02T02:38:25.912Z,21.71
2023-05-02T02:39:26.033Z,21.70
2023-05-02T02:40:26.032Z,21.70
2023-05-02T02:41:26.076Z,21.70
2023-05-02T02:42:26.147Z,21.70
2023-05-02T02:43:26.197Z,21.70
2023-05-02T02:44:26.275Z,21.70
2023-05-02T02:45:26.318Z,21.71
2023-05-02T02:46:26.480Z,21.70
2023-05-02T02:47:26.449Z,21.69
2023-05-02T02:48:26.527Z,21.69
2023-05-02T02:49:26.594Z,21.70
2023-05-02T02:50:26.623Z,21.70
2023-05-02T02:51:26.694Z,21.70
2023-05-02T02:52:26.738Z,21.69
2023-05-02T02:53:26.811Z,21.70
2023-05-02T02:54:27.628Z,21.69
2023-05-02T02:55:26.952Z,21.69
2023-05-02T02:56:27.005Z,21.69
2023-05-02T02:57:27.057Z,21.69
2023-05-02T02:58:27.117Z,21.69
2023-05-02T02:59:27.167Z,21.69
2023-05-02T03:00:27.239Z,21.68
2023-05-02T03:01:27.275Z,21.68
2023-05-02T03:02:27.362Z,21.68
2023-05-02T03:03:27.349Z,21.68
2023-05-02T03:04:27.372Z,21.69
2023-05-02T03:05:27.416Z,21.69
2023-05-02T03:06:27.533Z,21.68
2023-05-02T03:07:27.547Z,21.67
2023-05-02T03:08:27.564Z,21.68
2023-05-02T03:09:27.625Z,21.67
2023-05-02T03:10:27.664Z,21.68
2023-05-02T03:11:29.539Z,21.68
2023-05-02T03:12:27.823Z,21.67
2023-05-02T03:13:27.889Z,21.67
2023-05-02T03:14:27.927Z,21.67
2023-05-02T03:15:27.961Z,21.68
2023-05-02T03:16:28.046Z,21.68
2023-05-02T03:17:28.075Z,21.68
2023-05-02T03:18:28.119Z,21.68
2023-05-02T03:19:28.181Z,21.68
2023-05-02T03:20:28.218Z,21.68
2023-05-02T03:21:28.285Z,21.66
2023-05-02T03:22:28.327Z,21.67
2023-05-02T03:23:28.348Z,21.66
2023-05-02T03:24:30.295Z,21.66
2023-05-02T03:25:28.491Z,21.66
2023-05-02T03:26:28.548Z,21.66
2023-05-02T03:27:28.584Z,21.66
2023-05-02T03:28:28.648Z,21.66
2023-05-02T03:29:28.710Z,21.66
2023-05-02T03:30:28.794Z,21.66
2023-05-02T03:31:28.826Z,21.66
2023-05-02T03:32:28.917Z,21.66
2023-05-02T03:33:28.931Z,21.66
2023-05-02T03:34:28.986Z,21.66
2023-05-02T03:35:29.028Z,21.66
2023-05-02T03:36:29.124Z,21.66
2023-05-02T03:37:29.126Z,21.66
2023-05-02T03:38:29.166Z,21.66
2023-05-02T03:39:29.218Z,21.65
2023-05-02T03:40:29.267Z,21.66
2023-05-02T03:41:29.345Z,21.65
2023-05-02T03:42:29.398Z,21.66
2023-05-02T03:43:29.437Z,21.65
2023-05-02T03:44:29.484Z,21.65
2023-05-02T03:45:29.515Z,21.65
2023-05-02T03:46:29.611Z,21.65
2023-05-02T03:47:29.697Z,21.65
2023-05-02T03:48:29.648Z,21.65
2023-05-02T03:49:29.718Z,21.64
2023-05-02T03:50:29.723Z,21.65
2023-05-02T03:51:29.788Z,21.64
2023-05-02T03:52:29.840Z,21.65
2023-05-02T03:53:29.886Z,21.64
2023-05-02T03:54:29.937Z,21.65
2023-05-02T03:55:30.006Z,21.64
2023-05-02T03:56:30.043Z,21.65
2023-05-02T03:57:30.312Z,21.64
2023-05-02T03:58:30.141Z,21.64
2023-05-02T03:59:30.169Z,21.65
2023-05-02T04:00:30.234Z,21.64
2023-05-02T04:01:30.299Z,21.64
2023-05-02T04:02:30.507Z,21.64
2023-05-02T04:03:30.496Z,21.64
2023-05-02T04:04:30.568Z,21.64
2023-05-02T04:05:30.536Z,21.64
2023-05-02T04:06:30.634Z,21.64
2023-05-02T04:07:30.632Z,21.64
2023-05-02T04:08:30.696Z,21.65
2023-05-02T04:09:30.748Z,21.64
2023-05-02T04:10:30.813Z,21.64
2023-05-02T04:11:30.841Z,21.64
2023-05-02T04:12:30.904Z,21.63
2023-05-02T04:13:30.932Z,21.64
2023-05-02T04:14:30.988Z,21.63
2023-05-02T04:15:31.081Z,21.64
2023-05-02T04:16:31.141Z,21.63
2023-05-02T04:17:31.171Z,21.63
2023-05-02T04:18:31.195Z,21.64
2023-05-02T04:19:31.262Z,21.63
2023-05-02T04:20:31.317Z,21.64
2023-05-02T04:21:31.340Z,21.64
2023-05-02T04:22:31.818Z,21.63
2023-05-02T04:23:31.416Z,21.64
2023-05-02T04:24:36.350Z,21.63
2023-05-02T04:25:31.461Z,21.62
2023-05-02T04:26:31.479Z,21.64
2023-05-02T04:27:31.453Z,21.63
2023-05-02T04:28:31.454Z,21.64
2023-05-02T04:29:31.433Z,21.64
2023-05-02T04:30:31.481Z,21.64
2023-05-02T04:31:31.561Z,21.63
2023-05-02T04:32:31.452Z,21.64
2023-05-02T04:33:31.435Z,21.63
2023-05-02T04:34:31.465Z,21.63
2023-05-02T04:35:31.527Z,21.63
2023-05-02T04:36:31.585Z,21.63
2023-05-02T04:37:31.643Z,21.64
2023-05-02T04:38:31.646Z,21.63
2023-05-02T04:39:31.714Z,21.64
2023-05-02T04:40:31.707Z,21.64
2023-05-02T04:41:31.754Z,21.63
2023-05-02T04:42:31.825Z,21.63
2023-05-02T04:43:31.860Z,21.63
2023-05-02T04:44:31.902Z,21.64
2023-05-02T04:45:31.990Z,21.64
2023-05-02T04:46:32.104Z,21.64
2023-05-02T04:47:32.188Z,21.63
2023-05-02T04:48:32.185Z,21.63
2023-05-02T04:49:32.226Z,21.64
2023-05-02T04:50:32.316Z,21.63
2023-05-02T04:51:32.329Z,21.65
2023-05-02T04:52:32.440Z,21.64
2023-05-02T04:53:32.466Z,21.64
2023-05-02T04:54:32.532Z,21.63
2023-05-02T04:55:32.539Z,21.64
2023-05-02T04:56:32.618Z,21.64
2023-05-02T04:57:32.661Z,21.64
2023-05-02T04:58:32.707Z,21.64
2023-05-02T04:59:32.755Z,21.64
2023-05-02T05:00:32.810Z,21.64
2023-05-02T05:01:32.895Z,21.65
2023-05-02T05:02:33.054Z,21.64
2023-05-02T05:03:33.091Z,21.64
2023-05-02T05:04:33.028Z,21.64
2023-05-02T05:05:33.117Z,21.65
2023-05-02T05:06:33.211Z,21.64
2023-05-02T05:07:33.197Z,21.64
2023-05-02T05:08:33.271Z,21.64
2023-05-02T05:09:33.336Z,21.65
2023-05-02T05:10:33.362Z,21.65
2023-05-02T05:11:33.440Z,21.65
2023-05-02T05:12:33.531Z,21.65
2023-05-02T05:13:33.569Z,21.65
2023-05-02T05:14:33.629Z,21.65
2023-05-02T05:15:33.672Z,21.66
2023-05-02T05:16:33.775Z,21.66
2023-05-02T05:17:33.835Z,21.65
2023-05-02T05:18:33.859Z,21.65
2023-05-02T05:19:33.952Z,21.66
2023-05-02T05:20:33.969Z,21.65
2023-05-02T05:21:33.974Z,21.64
2023-05-02T05:22:33.995Z,21.62
2023-05-02T05:23:34.008Z,21.61
2023-05-02T05:24:34.046Z,21.58
2023-05-02T05:25:34.024Z,21.54
2023-05-02T05:26:34.017Z,21.50
2023-05-02T05:27:34.495Z,21.47
2023-05-02T05:28:34.046Z,21.46
2023-05-02T05:29:34.368Z,21.45
2023-05-02T05:30:34.129Z,21.44
2023-05-02T05:31:34.307Z,21.43
2023-05-02T05:32:34.198Z,21.43
2023-05-02T05:33:34.286Z,21.42
2023-05-02T05:34:34.343Z,21.41
2023-05-02T05:35:34.259Z,21.41
2023-05-02T05:36:34.329Z,21.43
2023-05-02T05:37:34.454Z,21.44
2023-05-02T05:38:34.861Z,21.47
2023-05-02T05:39:34.304Z,21.52
2023-05-02T05:40:34.272Z,21.57
2023-05-02T05:41:34.328Z,21.61
2023-05-02T05:42:34.328Z,21.65
2023-05-02T05:43:36.096Z,21.69
2023-05-02T05:44:34.367Z,21.73
2023-05-02T05:45:34.382Z,21.76
2023-05-02T05:46:34.412Z,21.79
2023-05-02T05:47:34.550Z,21.81
2023-05-02T05:48:34.305Z,21.82
2023-05-02T05:49:35.634Z,21.84
2023-05-02T05:50:34.272Z,21.83
2023-05-02T05:51:34.321Z,21.84
2023-05-02T05:52:34.400Z,21.84
2023-05-02T05:53:34.274Z,21.82
2023-05-02T05:54:34.851Z,21.82
2023-05-02T05:55:35.915Z,21.81
2023-05-02T05:56:34.267Z,21.80
2023-05-02T05:57:34.372Z,21.80
2023-05-02T05:58:34.282Z,21.81
2023-05-02T05:59:34.271Z,21.81
2023-05-02T06:00:34.229Z,21.82
2023-05-02T06:01:34.202Z,21.82
2023-05-02T06:02:34.300Z,21.83
2023-05-02T06:03:34.367Z,21.82
2023-05-02T06:04:34.249Z,21.82
2023-05-02T06:05:34.198Z,21.83
2023-05-02T06:06:34.257Z,21.86
2023-05-02T06:07:34.202Z,21.88
2023-05-02T06:08:34.182Z,21.88
2023-05-02T06:09:34.368Z,21.88
2023-05-02T06:10:34.171Z,21.89
2023-05-02T06:11:34.153Z,21.89
2023-05-02T06:12:34.156Z,21.89
2023-05-02T06:13:34.244Z,21.90
2023-05-02T06:14:34.144Z,21.91
2023-05-02T06:15:34.142Z,21.91
2023-05-02T06:16:34.296Z,21.92
2023-05-02T06:17:34.172Z,21.92
2023-05-02T06:18:34.113Z,21.92
2023-05-02T06:19:34.142Z,21.92
2023-05-02T06:20:34.123Z,21.91
2023-05-02T06:21:34.089Z,21.92
2023-05-02T06:22:34.185Z,21.93
2023-05-02T06:23:34.131Z,21.93
2023-05-02T06:24:34.084Z,21.93
2023-05-02T06:25:34.160Z,21.93
2023-05-02T06:26:34.054Z,21.93
2023-05-02T06:27:34.047Z,21.93
2023-05-02T06:28:34.052Z,21.95
2023-05-02T06:29:34.057Z,21.97
2023-05-02T06:30:34.025Z,21.98
2023-05-02T06:31:34.060Z,21.98
2023-05-02T06:32:34.087Z,22.00
2023-05-02T06:33:34.020Z,22.00
2023-05-02T06:34:34.013Z,22.01
2023-05-02T06:35:33.982Z,22.01
2023-05-02T06:36:34.063Z,22.01
2023-05-02T06:37:34.424Z,22.00
2023-05-02T06:38:34.135Z,22.04
2023-05-02T06:39:34.393Z,22.06
2023-05-02T06:40:34.256Z,22.07
2023-05-02T06:41:34.310Z,22.07
2023-05-02T06:42:34.410Z,22.06
2023-05-02T06:43:34.432Z,22.05
2023-05-02T06:44:34.572Z,22.03
2023-05-02T06:45:34.579Z,22.03
2023-05-02T06:46:34.643Z,22.02
2023-05-02T06:47:34.910Z,22.02
2023-05-02T06:48:34.727Z,22.02
2023-05-02T06:49:34.804Z,22.02
2023-05-02T06:50:34.866Z,22.02
2023-05-02T06:51:35.107Z,22.05
2023-05-02T06:52:34.998Z,22.08
2023-05-02T06:53:35.041Z,22.11
2023-05-02T06:54:35.048Z,22.12
2023-05-02T06:55:35.207Z,22.14
2023-05-02T06:56:35.126Z,22.18
2023-05-02T06:57:35.151Z,22.20
2023-05-02T06:58:35.209Z,22.22
2023-05-02T06:59:35.231Z,22.27
2023-05-02T07:00:35.314Z,22.33
2023-05-02T07:01:35.475Z,22.37
2023-05-02T07:02:35.364Z,22.41
2023-05-02T07:03:35.394Z,22.45
2023-05-02T07:04:35.407Z,22.47
2023-05-02T07:05:35.408Z,22.49
2023-05-02T07:06:35.558Z,22.49
2023-05-02T07:07:35.484Z,22.51
2023-05-02T07:08:35.509Z,22.52
2023-05-02T07:09:35.562Z,22.54
2023-05-02T07:10:35.575Z,22.55
2023-05-02T07:11:35.571Z,22.57
2023-05-02T07:12:35.654Z,22.58
2023-05-02T07:13:35.617Z,22.60
2023-05-02T07:14:35.641Z,22.62
2023-05-02T07:15:35.672Z,22.63
2023-05-02T07:16:35.756Z,22.64
2023-05-02T07:17:35.768Z,22.66
2023-05-02T07:18:35.714Z,22.67
2023-05-02T07:19:35.750Z,22.68
2023-05-02T07:20:35.736Z,22.70
2023-05-02T07:21:35.757Z,22.71
2023-05-02T07:22:35.861Z,22.72
2023-05-02T07:23:35.795Z,22.73
2023-05-02T07:24:35.806Z,22.74
2023-05-02T07:25:35.830Z,22.75
2023-05-02T07:26:35.800Z,22.74
2023-05-02T07:27:35.801Z,22.77
2023-05-02T07:28:35.835Z,22.77
2023-05-02T07:29:35.838Z,22.77
2023-05-02T07:30:35.838Z,22.79
2023-05-02T07:31:35.890Z,22.80
2023-05-02T07:32:35.875Z,22.81
2023-05-02T07:33:35.847Z,22.80
2023-05-02T07:34:35.912Z,22.80
2023-05-02T07:35:36.481Z,22.76
2023-05-02T07:36:35.883Z,22.72
2023-05-02T07:37:35.951Z,22.69
2023-05-02T07:38:36.010Z,22.64
2023-05-02T07:39:36.418Z,22.61
2023-05-02T07:40:35.988Z,22.59
2023-05-02T07:41:36.031Z,22.58
2023-05-02T07:42:36.031Z,22.60
2023-05-02T07:43:36.085Z,22.61
2023-05-02T07:44:36.416Z,22.63
2023-05-02T07:45:36.110Z,22.65
2023-05-02T07:46:36.186Z,22.68
2023-05-02T07:47:36.147Z,22.70
2023-05-02T07:48:36.214Z,22.73
2023-05-02T07:49:36.131Z,22.77
2023-05-02T07:50:36.147Z,22.79
2023-05-02T07:51:36.129Z,22.82
2023-05-02T07:52:36.139Z,22.83
2023-05-02T07:53:36.141Z,22.85
2023-05-02T07:54:36.464Z,22.87
2023-05-02T07:55:36.145Z,22.89
2023-05-02T07:56:36.240Z,22.91
2023-05-02T07:57:36.477Z,22.94
2023-05-02T07:58:36.145Z,22.96
2023-05-02T07:59:36.190Z,22.98
2023-05-02T08:00:36.165Z,23.02
2023-05-02T08:01:36.219Z,23.05
2023-05-02T08:02:36.309Z,23.05
2023-05-02T08:03:36.468Z,23.09
2023-05-02T08:04:36.348Z,23.10
2023-05-02T08:05:36.436Z,23.11
2023-05-02T08:06:36.492Z,23.12
2023-05-02T08:07:37.208Z,23.13
2023-05-02T08:08:36.641Z,23.14
2023-05-02T08:09:36.674Z,23.14
2023-05-02T08:10:36.721Z,23.16
2023-05-02T08:11:36.785Z,23.18
2023-05-02T08:12:36.804Z,23.20
2023-05-02T08:13:36.932Z,23.21
2023-05-02T08:14:37.078Z,23.23
2023-05-02T08:15:37.112Z,23.24
2023-05-02T08:16:37.145Z,23.25
2023-05-02T08:17:37.154Z,23.26
2023-05-02T08:18:37.197Z,23.28
2023-05-02T08:19:37.227Z,23.28
2023-05-02T08:20:37.466Z,23.29
2023-05-02T08:21:37.321Z,23.28
2023-05-02T08:22:37.393Z,23.29
2023-05-02T08:23:37.417Z,23.29
2023-05-02T08:24:37.469Z,23.29
2023-05-02T08:25:37.525Z,23.30
2023-05-02T08:26:37.604Z,23.28
2023-05-02T08:27:37.665Z,23.26
2023-05-02T08:28:37.701Z,23.22
2023-05-02T08:29:37.744Z,23.18
2023-05-02T08:30:37.817Z,23.13
2023-05-02T08:31:38.032Z,23.08
2023-05-02T08:32:39.123Z,23.03
2023-05-02T08:33:37.969Z,22.98
2023-05-02T08:34:37.952Z,22.92
2023-05-02T08:35:37.956Z,22.88
2023-05-02T08:36:38.004Z,22.83
2023-05-02T08:37:37.963Z,22.79
2023-05-02T08:38:37.991Z,22.77
2023-05-02T08:39:39.000Z,22.76
2023-05-02T08:40:42.315Z,22.77
2023-05-02T08:41:38.993Z,22.76
2023-05-02T08:42:38.460Z,22.75
2023-05-02T08:43:37.995Z,22.74
2023-05-02T08:44:38.020Z,22.75
2023-05-02T08:45:37.971Z,22.75
2023-05-02T08:46:37.988Z,22.76
2023-05-02T08:47:38.025Z,22.75
2023-05-02T08:48:37.961Z,22.75
2023-05-02T08:49:37.943Z,22.75
2023-05-02T08:50:37.954Z,22.73
2023-05-02T08:51:39.331Z,22.72
2023-05-02T08:52:37.926Z,22.71
2023-05-02T08:53:37.948Z,22.71
2023-05-02T08:54:37.941Z,22.70
2023-05-02T08:55:37.995Z,22.70
2023-05-02T08:56:38.008Z,22.70
2023-05-02T08:57:37.971Z,22.70
2023-05-02T08:58:37.999Z,22.70
2023-05-02T08:59:37.996Z,22.70
2023-05-02T09:00:38.009Z,22.71
2023-05-02T09:01:38.074Z,22.72
2023-05-02T09:02:38.059Z,22.71
2023-05-02T09:03:38.035Z,22.72
2023-05-02T09:04:38.055Z,22.70
2023-05-02T09:05:38.057Z,22.71
2023-05-02T09:06:38.090Z,22.71
2023-05-02T09:07:38.073Z,22.71
2023-05-02T09:08:38.105Z,22.71
2023-05-02T09:09:38.173Z,22.71
2023-05-02T09:10:38.133Z,22.71
2023-05-02T09:11:38.165Z,22.70
2023-05-02T09:12:38.153Z,22.71
2023-05-02T09:13:38.196Z,22.71
2023-05-02T09:14:38.199Z,22.71
2023-05-02T09:15:38.187Z,22.72
2023-05-02T09:16:38.212Z,22.72
2023-05-02T09:17:38.263Z,22.73
2023-05-02T09:18:38.210Z,22.73
2023-05-02T09:19:38.226Z,22.73
2023-05-02T09:20:38.235Z,22.73
2023-05-02T09:21:38.285Z,22.74
2023-05-02T09:22:38.255Z,22.73
2023-05-02T09:23:38.272Z,22.73
2023-05-02T09:24:38.266Z,22.73
2023-05-02T09:25:38.435Z,22.72
2023-05-02T09:26:38.330Z,22.72
2023-05-02T09:27:38.990Z,22.72
2023-05-02T09:28:38.349Z,22.71
2023-05-02T09:29:38.338Z,22.71
2023-05-02T09:30:38.474Z,22.71
2023-05-02T09:32:38.427Z,22.67
2023-05-02T09:33:38.384Z,22.65
2023-05-02T09:34:38.495Z,22.63
2023-05-02T09:35:38.346Z,22.55
2023-05-02T09:36:38.348Z,22.45
2023-05-02T09:37:38.411Z,22.35
2023-05-02T09:38:38.559Z,22.29
2023-05-02T09:39:38.331Z,22.26
2023-05-02T09:40:38.350Z,22.22
2023-05-02T09:41:38.329Z,22.20
2023-05-02T09:42:38.316Z,22.18
2023-05-02T09:43:38.473Z,22.17
2023-05-02T09:44:38.381Z,22.15
2023-05-02T09:45:38.474Z,22.14
2023-05-02T09:46:38.337Z,22.13
2023-05-02T09:47:38.360Z,22.14
2023-05-02T09:48:38.403Z,22.13
2023-05-02T09:49:38.410Z,22.15
2023-05-02T09:50:38.585Z,22.15
2023-05-02T09:51:38.283Z,22.15
2023-05-02T09:52:38.533Z,22.15
2023-05-02T09:53:38.307Z,22.14
2023-05-02T09:54:38.380Z,22.13
2023-05-02T09:55:38.226Z,22.14
2023-05-02T09:56:38.241Z,22.14
2023-05-02T09:57:38.888Z,22.14
2023-05-02T09:58:38.233Z,22.14
2023-05-02T09:59:38.258Z,22.14
2023-05-02T10:00:38.213Z,22.14
2023-05-02T10:01:38.222Z,22.13
2023-05-02T10:02:38.251Z,22.14
2023-05-02T10:03:38.259Z,22.14
2023-05-02T10:04:38.237Z,22.14
2023-05-02T10:05:38.162Z,22.13
2023-05-02T10:06:38.187Z,22.12
2023-05-02T10:07:38.134Z,22.14
2023-05-02T10:08:38.141Z,22.13
2023-05-02T10:09:38.224Z,22.13
2023-05-02T10:10:38.214Z,22.13
2023-05-02T10:11:38.134Z,22.13
2023-05-02T10:12:38.136Z,22.13
2023-05-02T10:13:38.138Z,22.13
2023-05-02T10:14:38.104Z,22.12
2023-05-02T10:15:38.134Z,22.11
2023-05-02T10:16:38.210Z,22.11
2023-05-02T10:17:38.317Z,22.10
2023-05-02T10:18:38.481Z,22.11
2023-05-02T10:19:38.386Z,22.11
2023-05-02T10:20:38.384Z,22.12
2023-05-02T10:21:38.431Z,22.11
2023-05-02T10:22:38.512Z,22.11
2023-05-02T10:23:38.576Z,22.09
2023-05-02T10:24:38.632Z,22.08
2023-05-02T10:25:38.669Z,22.07
2023-05-02T10:26:38.684Z,22.07
2023-05-02T10:27:38.801Z,22.05
2023-05-02T10:28:38.991Z,22.07
2023-05-02T10:29:38.900Z,22.07
2023-05-02T10:30:38.924Z,22.02
2023-05-02T10:31:39.007Z,21.96
2023-05-02T10:32:39.166Z,21.97
2023-05-02T10:33:39.126Z,22.01
2023-05-02T10:34:39.206Z,22.06
2023-05-02T10:35:39.218Z,22.10
2023-05-02T10:36:39.240Z,22.16
2023-05-02T10:37:39.267Z,22.21
2023-05-02T10:38:39.338Z,22.28
2023-05-02T10:39:39.356Z,22.34
2023-05-02T10:40:39.415Z,22.40
2023-05-02T10:41:39.440Z,22.47
2023-05-02T10:42:39.461Z,22.53
2023-05-02T10:43:39.474Z,22.58
2023-05-02T10:44:39.509Z,22.62
2023-05-02T10:45:39.494Z,22.68
2023-05-02T10:46:39.590Z,22.72
2023-05-02T10:47:39.588Z,22.77
2023-05-02T10:48:39.536Z,22.82
2023-05-02T10:49:39.529Z,22.85
2023-05-02T10:50:39.517Z,22.89
2023-05-02T10:51:40.501Z,22.91
2023-05-02T10:52:39.585Z,22.97
2023-05-02T10:53:39.597Z,23.00
2023-05-02T10:54:39.493Z,23.03
2023-05-02T10:55:39.508Z,23.05
2023-05-02T10:56:39.481Z,23.07
2023-05-02T10:57:39.498Z,23.10
2023-05-02T10:58:40.039Z,23.12
2023-05-02T10:59:39.554Z,23.15
2023-05-02T11:00:39.505Z,23.17
2023-05-02T11:01:39.475Z,23.19
2023-05-02T11:02:39.569Z,23.21
2023-05-02T11:03:39.579Z,23.22
2023-05-02T11:04:39.604Z,23.23
2023-05-02T11:05:39.657Z,23.26
2023-05-02T11:06:39.751Z,23.28
2023-05-02T11:07:39.805Z,23.30
2023-05-02T11:08:39.891Z,23.33
2023-05-02T11:09:39.939Z,23.34
2023-05-02T11:10:39.941Z,23.35
2023-05-02T11:11:40.010Z,23.36
2023-05-02T11:12:40.060Z,23.36
2023-05-02T11:13:40.262Z,23.38
2023-05-02T11:14:40.167Z,23.39
2023-05-02T11:15:40.221Z,23.43
2023-05-02T11:16:40.312Z,23.45
2023-05-02T11:17:40.360Z,23.45
2023-05-02T11:18:40.365Z,23.43
2023-05-02T11:19:40.416Z,23.42
2023-05-02T11:20:40.498Z,23.39
2023-05-02T11:21:40.564Z,23.36
2023-05-02T11:22:40.713Z,23.34
2023-05-02T11:23:40.659Z,23.32
2023-05-02T11:24:40.698Z,23.29
2023-05-02T11:25:40.787Z,23.27
2023-05-02T11:26:40.860Z,23.25
2023-05-02T11:27:40.870Z,23.23
2023-05-02T11:28:40.941Z,23.20
2023-05-02T11:29:40.990Z,23.19
2023-05-02T11:30:41.093Z,23.17
2023-05-02T11:31:41.156Z,23.16
2023-05-02T11:32:41.172Z,23.14
2023-05-02T11:33:41.211Z,23.12
2023-05-02T11:34:41.267Z,23.11
2023-05-02T11:35:41.307Z,23.10
2023-05-02T11:36:41.352Z,23.08
2023-05-02T11:37:41.376Z,23.08
2023-05-02T11:38:41.385Z,23.07
2023-05-02T11:39:41.410Z,23.07
2023-05-02T11:40:41.477Z,23.06
2023-05-02T11:41:41.485Z,23.05
2023-05-02T11:42:41.530Z,23.05
2023-05-02T11:43:41.560Z,23.03
2023-05-02T11:44:41.632Z,23.03
2023-05-02T11:45:42.106Z,23.03
2023-05-02T11:46:41.780Z,23.03
2023-05-02T11:47:41.706Z,23.02
2023-05-02T11:48:42.039Z,23.02
2023-05-02T11:49:41.700Z,23.01
2023-05-02T11:50:48.497Z,23.01
2023-05-02T11:51:42.706Z,23.00
2023-05-02T11:52:41.744Z,23.01
2023-05-02T11:53:41.702Z,23.00
2023-05-02T11:54:41.723Z,23.01
2023-05-02T11:55:41.757Z,23.00
2023-05-02T11:56:41.783Z,23.01
2023-05-02T11:57:41.796Z,23.01
2023-05-02T11:58:42.201Z,23.00
2023-05-02T11:59:41.854Z,23.00
2023-05-02T12:00:42.054Z,23.01
2023-05-02T12:01:41.849Z,23.00
2023-05-02T12:02:42.019Z,23.01
2023-05-02T12:03:42.211Z,23.00
2023-05-02T12:04:41.925Z,23.00
2023-05-02T12:05:41.981Z,23.00
2023-05-02T12:06:41.972Z,23.01
2023-05-02T12:07:41.942Z,23.01
2023-05-02T12:08:42.034Z,23.01
2023-05-02T12:09:42.008Z,23.01
2023-05-02T12:10:41.955Z,23.01
2023-05-02T12:11:42.006Z,23.01
2023-05-02T12:12:41.976Z,23.01
2023-05-02T12:13:42.066Z,23.01
2023-05-02T12:14:41.992Z,23.01
2023-05-02T12:15:42.039Z,23.01
2023-05-02T12:16:42.164Z,23.01
2023-05-02T12:17:42.089Z,23.01
2023-05-02T12:18:42.080Z,23.01
2023-05-02T12:19:42.158Z,23.01
2023-05-02T12:20:42.001Z,23.01
2023-05-02T12:21:42.009Z,23.00
2023-05-02T12:22:42.065Z,23.01
2023-05-02T12:23:42.057Z,23.00
2023-05-02T12:24:41.979Z,23.01
2023-05-02T12:25:41.984Z,23.01
2023-05-02T12:26:42.005Z,23.00
2023-05-02T12:27:41.979Z,23.00
2023-05-02T12:28:41.986Z,23.00
2023-05-02T12:29:42.041Z,23.00
2023-05-02T12:30:42.094Z,23.00
2023-05-02T12:31:42.009Z,23.00
2023-05-02T12:32:42.026Z,23.00
2023-05-02T12:33:41.977Z,22.99
2023-05-02T12:34:41.985Z,22.99
2023-05-02T12:35:41.976Z,22.99
2023-05-02T12:36:41.996Z,22.99
2023-05-02T12:37:41.981Z,22.99
2023-05-02T12:38:42.052Z,22.99
2023-05-02T12:39:42.029Z,22.99
2023-05-02T12:40:41.951Z,22.98
2023-05-02T12:41:41.972Z,22.98
2023-05-02T12:42:41.938Z,22.97
2023-05-02T12:43:41.957Z,22.98
2023-05-02T12:44:41.954Z,22.97
2023-05-02T12:45:41.941Z,22.96
2023-05-02T12:46:41.999Z,22.95
2023-05-02T12:47:41.986Z,22.95
2023-05-02T12:48:42.023Z,22.94
2023-05-02T12:49:41.942Z,22.94
2023-05-02T12:50:41.931Z,22.94
2023-05-02T12:51:41.924Z,22.92
2023-05-02T12:52:41.946Z,22.92
2023-05-02T12:53:41.919Z,22.91